createdAt,value
2023-01-12T00:03:50.904Z,4.98
2023-01-12T00:08:54.930Z,5.03
2023-01-12T00:13:59.735Z,5.03
2023-01-12T00:19:16.825Z,5.05
2023-01-12T00:24:19.995Z,5.10
2023-01-12T00:29:23.684Z,5.12
2023-01-12T00:34:29.429Z,5.13
2023-01-12T00:39:32.550Z,5.18
2023-01-12T00:44:54.560Z,5.25
2023-01-12T00:49:57.748Z,5.29
2023-01-12T00:55:01.023Z,5.28
2023-01-12T01:00:03.483Z,5.33
2023-01-12T01:05:05.640Z,5.42
2023-01-12T01:10:08.796Z,5.50
2023-01-12T01:15:11.413Z,5.54
2023-01-12T01:20:14.853Z,5.58
2023-01-12T01:25:19.025Z,5.59
2023-01-12T01:30:22.226Z,5.60
2023-01-12T01:35:25.883Z,5.62
2023-01-12T01:40:29.622Z,5.68
2023-01-12T01:45:33.518Z,5.70
2023-01-12T01:50:42.439Z,5.72
2023-01-12T01:56:00.545Z,5.80
2023-01-12T02:01:03.450Z,5.85
2023-01-12T02:06:07.242Z,5.86
2023-01-12T02:11:31.829Z,5.84
2023-01-12T02:16:39.251Z,5.90
2023-01-12T02:21:59.284Z,5.97
2023-01-12T02:27:28.572Z,6.00
2023-01-12T02:32:54.865Z,5.99
2023-01-12T02:38:00.182Z,6.04
2023-01-12T02:43:26.214Z,6.13
2023-01-12T02:48:45.567Z,6.15
2023-01-12T02:54:00.312Z,6.16
2023-01-12T02:59:09.370Z,6.17
2023-01-12T03:04:14.808Z,6.16
2023-01-12T03:09:19.950Z,6.17
2023-01-12T03:14:23.905Z,6.16
2023-01-12T03:19:32.832Z,6.23
2023-01-12T03:24:40.868Z,6.25
2023-01-12T03:29:52.199Z,6.26
2023-01-12T03:34:56.023Z,6.28
2023-01-12T03:40:07.200Z,6.27
2023-01-12T03:45:22.729Z,6.23
2023-01-12T03:50:35.793Z,6.26
2023-01-12T03:55:39.850Z,6.33
2023-01-12T04:00:42.827Z,6.37
2023-01-12T04:05:46.657Z,6.37
2023-01-12T04:10:49.686Z,6.38
2023-01-12T04:15:53.213Z,6.45
2023-01-12T04:20:57.963Z,6.50
2023-01-12T04:26:02.516Z,6.54
2023-01-12T04:31:05.196Z,6.54
2023-01-12T04:36:11.578Z,6.57
2023-01-12T04:41:14.684Z,6.63
2023-01-12T04:46:17.835Z,6.68
2023-01-12T04:51:20.849Z,6.69
2023-01-12T04:56:25.062Z,6.75
2023-01-12T05:01:29.669Z,6.73
2023-01-12T05:06:31.876Z,6.70
2023-01-12T05:11:34.659Z,6.73
2023-01-12T05:16:38.501Z,6.72
2023-01-12T05:21:41.497Z,6.73
2023-01-12T05:26:44.140Z,6.73
2023-01-12T05:31:47.936Z,6.74
2023-01-12T05:36:51.575Z,6.71
2023-01-12T05:42:13.506Z,6.63
2023-01-12T05:47:15.867Z,6.55
2023-01-12T05:52:19.815Z,6.50
2023-01-12T05:57:23.361Z,6.52
2023-01-12T06:02:26.678Z,6.49
2023-01-12T06:07:29.445Z,6.42
2023-01-12T06:12:51.495Z,6.38
2023-01-12T06:18:01.147Z,6.34
2023-01-12T06:23:08.321Z,6.27
2023-01-12T06:28:13.332Z,6.23
2023-01-12T06:33:16.564Z,6.17
2023-01-12T06:38:21.546Z,6.16
2023-01-12T06:43:25.155Z,6.13
2023-01-12T06:48:38.710Z,6.08
2023-01-12T06:53:44.136Z,6.07
2023-01-12T06:58:46.549Z,6.03
2023-01-12T07:03:49.972Z,6.01
2023-01-12T07:08:52.472Z,5.94
2023-01-12T07:13:55.735Z,5.82
2023-01-12T07:18:58.934Z,5.67
2023-01-12T07:24:02.723Z,5.61
2023-01-12T07:29:05.760Z,5.60
2023-01-12T07:34:09.093Z,5.61
2023-01-12T07:39:12.867Z,5.62
2023-01-12T07:44:15.739Z,5.62
2023-01-12T07:49:19.504Z,5.63
2023-01-12T07:54:22.223Z,5.63
2023-01-12T07:59:25.602Z,5.59
2023-01-12T08:04:28.067Z,5.51
2023-01-12T08:09:30.795Z,5.48
2023-01-12T08:14:38.635Z,5.41
2023-01-12T08:19:51.658Z,5.34
2023-01-12T08:25:01.219Z,5.34
2023-01-12T08:30:08.599Z,5.45
2023-01-12T08:35:12.519Z,5.55
2023-01-12T08:40:15.964Z,5.66
2023-01-12T08:45:21.043Z,5.81
2023-01-12T08:50:24.601Z,5.91
2023-01-12T08:55:31.190Z,5.95
2023-01-12T09:00:35.210Z,6.04
2023-01-12T09:05:38.922Z,6.15
2023-01-12T09:10:47.143Z,6.24
2023-01-12T09:16:11.219Z,6.34
2023-01-12T09:21:20.608Z,6.46
2023-01-12T09:26:32.404Z,6.56
2023-01-12T09:31:38.053Z,6.70
2023-01-12T09:36:42.497Z,6.82
2023-01-12T09:42:07.448Z,6.87
2023-01-12T09:47:54.054Z,6.93
2023-01-12T09:53:16.847Z,6.97
2023-01-12T09:58:28.605Z,7.09
2023-01-12T10:03:43.841Z,7.18
2023-01-12T10:09:03.600Z,7.27
2023-01-12T10:14:34.841Z,7.39
2023-01-12T10:19:51.190Z,7.54
2023-01-12T10:24:55.569Z,7.70
2023-01-12T10:30:00.324Z,7.89
2023-01-12T10:35:04.287Z,8.04
2023-01-12T10:40:20.765Z,8.16
2023-01-12T10:45:25.275Z,8.32
2023-01-12T10:50:30.265Z,8.41
2023-01-12T10:55:39.137Z,8.50
2023-01-12T11:00:49.619Z,8.61
2023-01-12T11:05:53.157Z,8.75
2023-01-12T11:10:57.009Z,8.88
2023-01-12T11:16:09.441Z,8.94
2023-01-12T11:21:18.007Z,9.01
2023-01-12T11:26:26.505Z,9.08
2023-01-12T11:31:36.777Z,9.13
2023-01-12T11:36:44.048Z,9.21
2023-01-12T11:42:10.346Z,9.27
2023-01-12T11:47:16.913Z,9.28
2023-01-12T11:52:20.518Z,9.31
2023-01-12T11:57:41.012Z,9.30
2023-01-12T12:03:09.939Z,9.31
2023-01-12T12:08:30.672Z,9.31
2023-01-12T12:13:42.009Z,9.36
2023-01-12T12:18:47.282Z,9.34
2023-01-12T12:24:03.904Z,9.32
2023-01-12T12:29:24.188Z,9.36
2023-01-12T12:34:55.817Z,9.36
2023-01-12T12:40:28.094Z,9.37
2023-01-12T12:46:07.551Z,9.38
2023-01-12T12:51:15.887Z,9.36
2023-01-12T12:56:27.896Z,9.35
2023-01-12T13:01:37.001Z,9.39
2023-01-12T13:06:52.346Z,9.35
2023-01-12T13:12:02.373Z,9.24
2023-01-12T13:17:21.752Z,9.22
2023-01-12T13:22:49.562Z,9.14
2023-01-12T13:28:09.532Z,9.05
2023-01-12T13:33:16.508Z,8.94
2023-01-12T13:38:44.965Z,8.83
2023-01-12T13:43:49.167Z,8.72
2023-01-12T13:48:55.813Z,8.59
2023-01-12T13:54:01.863Z,8.50
2023-01-12T13:59:07.961Z,8.39
2023-01-12T14:04:20.202Z,8.27
2023-01-12T14:09:24.874Z,8.17
2023-01-12T14:15:06.074Z,8.09
2023-01-12T14:20:16.993Z,8.02
2023-01-12T14:25:24.751Z,7.88
2023-01-12T14:30:28.754Z,7.78
2023-01-12T14:35:32.198Z,7.74
2023-01-12T14:40:34.592Z,7.67
2023-01-12T14:46:12.971Z,7.56
2023-01-12T14:51:22.500Z,7.45
2023-01-12T14:56:34.967Z,7.40
2023-01-12T15:01:42.669Z,7.32
2023-01-12T15:06:47.196Z,7.24
2023-01-12T15:11:50.224Z,7.16
2023-01-12T15:17:13.254Z,7.11
2023-01-12T15:22:37.765Z,7.03
2023-01-12T15:27:41.796Z,6.90
2023-01-12T15:32:47.829Z,6.78
2023-01-12T15:37:54.144Z,6.71
2023-01-12T15:42:59.296Z,6.67
2023-01-12T15:48:03.811Z,6.62
2023-01-12T15:53:19.643Z,6.60
2023-01-12T15:58:24.317Z,6.50
2023-01-12T16:08:53.428Z,6.33
2023-01-12T16:13:57.202Z,6.31
2023-01-12T16:19:01.110Z,6.32
2023-01-12T16:24:04.883Z,6.31
2023-01-12T16:29:09.376Z,6.25
2023-01-12T16:34:17.463Z,6.21
2023-01-12T16:39:24.962Z,6.17
2023-01-12T16:44:29.781Z,6.11
2023-01-12T16:49:35.904Z,6.09
2023-01-12T16:54:42.193Z,6.13
2023-01-12T16:59:49.375Z,6.10
2023-01-12T17:04:53.297Z,6.11
2023-01-12T17:09:57.492Z,6.17
2023-01-12T17:15:01.381Z,6.25
2023-01-12T17:20:05.366Z,6.28
2023-01-12T17:25:10.326Z,6.27
2023-01-12T17:30:13.656Z,6.26
2023-01-12T17:35:17.051Z,6.27
2023-01-12T17:40:20.334Z,6.30
2023-01-12T17:45:24.258Z,6.30
2023-01-12T17:50:28.575Z,6.31
2023-01-12T17:55:36.676Z,6.31
2023-01-12T18:00:46.284Z,6.31
2023-01-12T18:06:02.842Z,6.33
2023-01-12T18:11:09.360Z,6.36
2023-01-12T18:16:18.964Z,6.34
2023-01-12T18:21:26.653Z,6.39
2023-01-12T18:26:31.644Z,6.44
2023-01-12T18:31:42.611Z,6.41
2023-01-12T18:36:50.305Z,6.40
2023-01-12T18:42:14.287Z,6.43
2023-01-12T18:47:38.619Z,6.47
2023-01-12T18:53:04.428Z,6.43
2023-01-12T18:58:10.315Z,6.48
2023-01-12T19:03:17.963Z,6.48
2023-01-12T19:08:28.291Z,6.47
2023-01-12T19:13:54.640Z,6.52
2023-01-12T19:18:59.799Z,6.53
2023-01-12T19:24:22.444Z,6.50
2023-01-12T19:29:25.897Z,6.50
2023-01-12T19:34:28.913Z,6.49
2023-01-12T19:39:46.441Z,6.46
2023-01-12T19:44:51.191Z,6.46
2023-01-12T19:49:55.622Z,6.43
2023-01-12T19:54:58.882Z,6.39
2023-01-12T20:00:07.902Z,6.40
2023-01-12T20:05:14.041Z,6.39
2023-01-12T20:10:18.940Z,6.38
2023-01-12T20:15:21.892Z,6.40
2023-01-12T20:20:25.249Z,6.46
2023-01-12T20:25:28.608Z,6.45
2023-01-12T20:30:37.982Z,6.41
2023-01-12T20:35:46.895Z,6.45
2023-01-12T20:40:50.768Z,6.49
2023-01-12T20:45:54.170Z,6.49
2023-01-12T20:50:57.175Z,6.52
2023-01-12T20:56:00.887Z,6.56
2023-01-12T21:01:11.210Z,6.59
2023-01-12T21:06:18.223Z,6.62
2023-01-12T21:11:23.130Z,6.64
2023-01-12T21:16:26.591Z,6.67
2023-01-12T21:21:29.636Z,6.72
2023-01-12T21:26:32.905Z,6.70
2023-01-12T21:31:35.952Z,6.68
2023-01-12T21:36:39.477Z,6.66
2023-01-12T21:42:01.992Z,6.62
2023-01-12T21:47:09.336Z,6.62
2023-01-12T21:52:12.315Z,6.60
2023-01-12T21:57:15.214Z,6.58
2023-01-12T22:02:18.092Z,6.54
2023-01-12T22:07:20.738Z,6.52
2023-01-12T22:12:22.950Z,6.52
2023-01-12T22:17:25.164Z,6.53
2023-01-12T22:22:27.788Z,6.55
2023-01-12T22:27:31.117Z,6.54
2023-01-12T22:32:34.256Z,6.56
2023-01-12T22:37:39.606Z,6.59
2023-01-12T22:43:01.074Z,6.58
2023-01-12T22:48:03.631Z,6.57
2023-01-12T22:53:05.953Z,6.60
2023-01-12T22:58:08.837Z,6.63
2023-01-12T23:03:13.742Z,6.65
2023-01-12T23:08:16.536Z,6.60
2023-01-12T23:13:20.839Z,6.58
2023-01-12T23:18:27.828Z,6.55
2023-01-12T23:23:31.754Z,6.55
2023-01-12T23:28:41.285Z,6.54
2023-01-12T23:33:46.428Z,6.51
2023-01-12T23:39:00.953Z,6.45
2023-01-12T23:44:06.602Z,6.39
2023-01-12T23:49:09.828Z,6.35
2023-01-12T23:54:16.443Z,6.31
2023-01-12T23:59:19.306Z,6.26
